LESB Airport Information

Runway Information
Runway 06 Length 3281 ft width 72 ft
Elevation 0 ft Threshold 0 ft Heading 49
Runway 24 Length 3281 ft Width 72 ft
Elevation 0 ft Threshold 0 ft Heading 229
Airport Frequencies
Type APP Name PALMA APP Frequency 119.4 MHZ
Type OPS Name PALMA OPS Frequency 130.25 MHZ
Type TWR Name PALMA TWR Frequency 118.3 MHZ
Airport Navaids
Airport Weather Information & NOTAM
ADDS - METARS form results

(0828 UTC 25 April 2019)
Data provider http://aviationweather.gov/metar/data/
 
METAR text: LESB 250800Z AUTO 18011KT 150V210 9999 SCT024/// OVC028/// 17/12 Q1015
Conditions at: LESB (MALLORCA SON BON, ES) observed 0800 UTC 25 April 2019
Temperature: 17.0°C (63°F)
Dewpoint: 12.0°C (54°F) [RH = 72%]
Pressure (altimeter): 29.97 inches Hg (1015.0 mb)
Winds: from the S (180 degrees) at 13 MPH (11 knots; 5.7 m/s)
Visibility: 6 or more miles (10+ km)
Ceiling: 2800 feet AGL
Clouds: scattered clouds at 2400 feet AGL
overcast cloud deck at 2800 feet AGL
Weather: no significant weather observed at this time

METAR text: LESB 250730Z AUTO 17010KT 150V210 9999 BKN025/// OVC030/// 17/12 Q1015
Conditions at: LESB (MALLORCA SON BON, ES) observed 0730 UTC 25 April 2019
Temperature: 17.0°C (63°F)
Dewpoint: 12.0°C (54°F) [RH = 72%]
Pressure (altimeter): 29.97 inches Hg (1015.0 mb)
Winds: from the S (170 degrees) at 12 MPH (10 knots; 5.1 m/s)
Visibility: 6 or more miles (10+ km)
Ceiling: 2500 feet AGL
Clouds: broken clouds at 2500 feet AGL
overcast cloud deck at 3000 feet AGL
Weather: no significant weather observed at this time